Terminal Aerodrome Forecast
Issued by NWS

Home | Current Version | Previous Version | Text Only | Print | Product List | Glossary On
Versions: 1 2 3 4 5 6 7 8 9 10 11 12 13 14 15 16 17 18 19 20 21 22 23 24
659
FTUS41 KGYX 232332
TAFRKD
TAF
KRKD 232332Z 2400/2424 06016G24KT P6SM OVC024
     FM240800 06021G30KT 2SM -FZRAPL OVC007
     FM241000 06025G35KT 3SM FZRA OVC035 WS020/09035KT
     FM241500 06023G32KT 2SM +RA OVC015 WS020/08055KT=

USA.gov is the U.S. government's official web portal to all federal, state and local government web resources and services.